createdAt,value
2023-03-11T00:00:15.078Z,99778.34
2023-03-11T00:02:44.140Z,99786.84
2023-03-11T00:05:15.462Z,99797.13
2023-03-11T00:07:43.224Z,99808.03
2023-03-11T00:10:15.024Z,99791.41
2023-03-11T00:12:42.755Z,99791.56
2023-03-11T00:15:11.530Z,99811.47
2023-03-11T00:17:39.171Z,99806.72
2023-03-11T00:20:10.256Z,99824.09
2023-03-11T00:22:37.888Z,99816.56
2023-03-11T00:25:06.190Z,99820.50
2023-03-11T00:27:33.856Z,99829.75
2023-03-11T00:30:01.515Z,99837.53
2023-03-11T00:32:29.238Z,99848.00
2023-03-11T00:34:56.940Z,99850.53
2023-03-11T00:37:26.023Z,99853.41
2023-03-11T00:39:53.687Z,99858.31
2023-03-11T00:42:21.371Z,99865.09
2023-03-11T00:44:49.124Z,99872.84
2023-03-11T00:47:16.806Z,99875.19
2023-03-11T00:49:44.621Z,99875.66
2023-03-11T00:52:12.341Z,99879.81
2023-03-11T00:54:41.380Z,99871.31
2023-03-11T00:57:09.088Z,99875.09
2023-03-11T00:59:36.997Z,99879.81
2023-03-11T01:02:04.835Z,99888.34
2023-03-11T01:04:32.602Z,99874.13
2023-03-11T01:07:00.303Z,99875.59
2023-03-11T01:09:27.971Z,99885.13
2023-03-11T01:11:57.108Z,99890.22
2023-03-11T01:14:24.843Z,99888.03
2023-03-11T01:16:53.789Z,99893.72
2023-03-11T01:19:21.473Z,99903.59
2023-03-11T01:21:49.193Z,99908.16
2023-03-11T01:24:16.977Z,99912.97
2023-03-11T01:26:44.875Z,99903.91
2023-03-11T01:29:13.923Z,99897.69
2023-03-11T01:31:41.602Z,99902.00
2023-03-11T01:34:09.244Z,99912.59
2023-03-11T01:36:36.893Z,99912.50
2023-03-11T01:39:04.695Z,99917.69
2023-03-11T01:41:32.451Z,99901.53
2023-03-11T01:44:00.122Z,99905.81
2023-03-11T01:46:32.450Z,99920.41
2023-03-11T01:49:01.073Z,99921.94
2023-03-11T01:51:30.296Z,99921.56
2023-03-11T01:53:59.223Z,99924.69
2023-03-11T01:56:26.940Z,99913.13
2023-03-11T01:58:55.136Z,99918.78
2023-03-11T02:01:23.637Z,99923.78
2023-03-11T02:03:52.793Z,99933.72
2023-03-11T02:06:22.906Z,99935.78
2023-03-11T02:08:50.847Z,99929.81
2023-03-11T02:11:21.219Z,99943.56
2023-03-11T02:13:49.847Z,99928.66
2023-03-11T02:16:17.661Z,99939.31
2023-03-11T02:18:45.452Z,99931.16
2023-03-11T02:21:22.107Z,99937.59
2023-03-11T02:23:54.912Z,99943.69
2023-03-11T02:26:26.085Z,99934.38
2023-03-11T02:28:55.615Z,99945.22
2023-03-11T02:31:23.845Z,99937.97
2023-03-11T02:33:54.311Z,99940.09
2023-03-11T02:36:33.318Z,99936.66
2023-03-11T02:39:01.210Z,99950.88
2023-03-11T02:41:29.627Z,99956.00
2023-03-11T02:43:58.754Z,99956.88
2023-03-11T02:46:26.983Z,99967.31
2023-03-11T02:48:55.661Z,99970.00
2023-03-11T02:51:23.349Z,99965.66
2023-03-11T02:53:52.936Z,99967.34
2023-03-11T02:56:20.752Z,99970.94
2023-03-11T02:58:48.477Z,99974.16
2023-03-11T03:01:17.668Z,99968.97
2023-03-11T03:03:45.448Z,99972.09
2023-03-11T03:06:13.343Z,99976.94
2023-03-11T03:08:40.980Z,99971.97
2023-03-11T03:11:08.831Z,99978.78
2023-03-11T03:13:36.593Z,99989.31
2023-03-11T03:16:04.913Z,99990.22
2023-03-11T03:18:34.059Z,99995.19
2023-03-11T03:21:01.708Z,99985.81
2023-03-11T03:23:29.428Z,99995.94
2023-03-11T03:25:57.064Z,99997.78
2023-03-11T03:28:24.712Z,99991.44
2023-03-11T03:30:52.413Z,100003.59
2023-03-11T03:33:20.231Z,100011.69
2023-03-11T03:35:50.038Z,100011.84
2023-03-11T03:38:17.938Z,99999.75
2023-03-11T03:40:47.552Z,100007.06
2023-03-11T03:43:15.231Z,100014.34
2023-03-11T03:45:43.020Z,100013.66
2023-03-11T03:48:10.844Z,100014.13
2023-03-11T03:50:38.570Z,100007.31
2023-03-11T03:53:07.796Z,100015.16
2023-03-11T03:55:35.507Z,100004.84
2023-03-11T03:58:03.245Z,100011.19
2023-03-11T04:00:30.991Z,100016.00
2023-03-11T04:02:58.801Z,100004.28
2023-03-11T04:05:27.769Z,100013.69
2023-03-11T04:07:55.678Z,100015.22
2023-03-11T04:10:24.705Z,100021.28
2023-03-11T04:12:52.378Z,100025.75
2023-03-11T04:15:20.098Z,100027.75
2023-03-11T04:17:47.790Z,100029.56
2023-03-11T04:20:15.593Z,100026.88
2023-03-11T04:22:43.238Z,100045.09
2023-03-11T04:25:10.951Z,100037.53
2023-03-11T04:27:42.608Z,100048.38
2023-03-11T04:30:11.536Z,100043.84
2023-03-11T04:32:39.375Z,100045.00
2023-03-11T04:35:07.932Z,100051.53
2023-03-11T04:37:35.672Z,100050.53
2023-03-11T04:40:04.187Z,100050.75
2023-03-11T04:42:31.888Z,100050.47
2023-03-11T04:45:00.939Z,100061.34
2023-03-11T04:47:28.837Z,100064.50
2023-03-11T04:49:56.814Z,100065.34
2023-03-11T04:52:24.539Z,100064.59
2023-03-11T04:54:52.228Z,100066.41
2023-03-11T04:57:19.929Z,100073.13
2023-03-11T04:59:47.616Z,100081.03
2023-03-11T05:02:16.703Z,100075.34
2023-03-11T05:04:44.659Z,100087.97
2023-03-11T05:07:12.421Z,100086.44
2023-03-11T05:09:40.106Z,100093.78
2023-03-11T05:12:09.695Z,100087.44
2023-03-11T05:14:37.480Z,100089.91
2023-03-11T05:17:05.579Z,100093.31
2023-03-11T05:19:35.642Z,100104.72
2023-03-11T05:22:03.842Z,100102.97
2023-03-11T05:24:31.741Z,100100.09
2023-03-11T05:26:59.565Z,100103.84
2023-03-11T05:29:27.292Z,100102.88
2023-03-11T05:31:55.290Z,100103.09
2023-03-11T05:34:23.345Z,100117.28
2023-03-11T05:36:52.447Z,100120.13
2023-03-11T05:39:20.160Z,100120.50
2023-03-11T05:41:48.408Z,100132.97
2023-03-11T05:44:16.120Z,100135.41
2023-03-11T05:46:43.890Z,100131.56
2023-03-11T05:49:11.551Z,100134.50
2023-03-11T05:51:39.239Z,100142.22
2023-03-11T05:54:14.832Z,100138.50
2023-03-11T05:56:43.038Z,100136.59
2023-03-11T05:59:11.213Z,100141.16
2023-03-11T06:01:39.338Z,100147.91
2023-03-11T06:04:07.399Z,100146.31
2023-03-11T06:06:35.203Z,100152.38
2023-03-11T06:09:04.122Z,100152.59
2023-03-11T06:11:33.155Z,100150.97
2023-03-11T06:14:00.848Z,100155.31
2023-03-11T06:16:28.625Z,100159.72
2023-03-11T06:18:56.478Z,100160.63
2023-03-11T06:21:26.776Z,100165.78
2023-03-11T06:23:54.651Z,100169.28
2023-03-11T06:26:24.166Z,100160.69
2023-03-11T06:28:54.206Z,100169.31
2023-03-11T06:31:24.254Z,100177.97
2023-03-11T06:33:52.107Z,100174.50
2023-03-11T06:36:21.044Z,100177.09
2023-03-11T06:38:50.114Z,100190.88
2023-03-11T06:41:17.855Z,100190.03
2023-03-11T06:43:45.609Z,100189.19
2023-03-11T06:46:17.077Z,100191.72
2023-03-11T06:48:45.773Z,100200.31
2023-03-11T06:51:13.702Z,100203.91
2023-03-11T06:53:41.574Z,100208.00
2023-03-11T06:56:11.242Z,100215.59
2023-03-11T06:58:40.151Z,100217.28
2023-03-11T07:01:09.186Z,100218.03
2023-03-11T07:03:38.461Z,100223.13
2023-03-11T07:06:06.863Z,100236.78
2023-03-11T07:08:34.603Z,100243.59
2023-03-11T07:11:06.463Z,100241.75
2023-03-11T07:13:34.236Z,100242.44
2023-03-11T07:16:03.576Z,100249.16
2023-03-11T07:18:31.250Z,100252.41
2023-03-11T07:21:00.240Z,100258.59
2023-03-11T07:23:27.984Z,100261.19
2023-03-11T07:25:55.622Z,100268.47
2023-03-11T07:28:23.375Z,100273.31
2023-03-11T07:30:51.302Z,100277.63
2023-03-11T07:33:19.714Z,100285.09
2023-03-11T07:35:49.380Z,100280.59
2023-03-11T07:38:19.788Z,100290.00
2023-03-11T07:40:47.693Z,100277.81
2023-03-11T07:43:15.506Z,100285.41
2023-03-11T07:45:43.488Z,100285.03
2023-03-11T07:48:11.175Z,100292.44
2023-03-11T07:50:39.108Z,100288.94
2023-03-11T07:53:06.820Z,100299.53
2023-03-11T07:55:35.933Z,100303.31
2023-03-11T07:58:03.627Z,100314.22
2023-03-11T08:00:31.288Z,100319.31
2023-03-11T08:02:59.004Z,100323.66
2023-03-11T08:05:26.763Z,100329.28
2023-03-11T08:07:54.460Z,100341.16
2023-03-11T08:10:22.210Z,100339.88
2023-03-11T08:12:52.240Z,100347.66
2023-03-11T08:15:19.939Z,100353.44
2023-03-11T08:17:47.617Z,100357.78
2023-03-11T08:20:15.487Z,100357.97
2023-03-11T08:22:55.461Z,100363.66
2023-03-11T08:25:25.161Z,100356.09
2023-03-11T08:27:54.290Z,100360.34
2023-03-11T08:30:22.999Z,100358.59
2023-03-11T08:32:50.853Z,100358.97
2023-03-11T08:35:18.888Z,100356.69
2023-03-11T08:37:46.829Z,100369.94
2023-03-11T08:40:14.871Z,100374.66
2023-03-11T08:42:42.528Z,100379.41
2023-03-11T08:45:12.717Z,100374.00
2023-03-11T08:47:41.106Z,100370.41
2023-03-11T08:50:14.340Z,100369.00
2023-03-11T08:52:42.261Z,100357.81
2023-03-11T08:55:11.972Z,100359.19
2023-03-11T08:57:39.694Z,100358.34
2023-03-11T09:00:11.560Z,100355.59
2023-03-11T09:02:43.464Z,100355.28
2023-03-11T09:05:11.744Z,100361.06
2023-03-11T09:07:39.452Z,100358.44
2023-03-11T09:10:08.146Z,100351.06
2023-03-11T09:12:35.928Z,100355.13
2023-03-11T09:15:03.630Z,100359.25
2023-03-11T09:17:31.351Z,100368.06
2023-03-11T09:20:00.525Z,100377.91
2023-03-11T09:22:28.629Z,100378.59
2023-03-11T09:24:56.360Z,100377.75
2023-03-11T09:27:24.068Z,100376.59
2023-03-11T09:29:51.843Z,100378.50
2023-03-11T09:32:19.624Z,100379.41
2023-03-11T09:34:47.396Z,100373.84
2023-03-11T09:37:16.404Z,100373.91
2023-03-11T09:39:44.169Z,100382.75
2023-03-11T09:42:18.513Z,100390.00
2023-03-11T09:44:54.860Z,100397.22
2023-03-11T09:47:34.453Z,100405.84
2023-03-11T09:50:12.946Z,100407.63
2023-03-11T09:52:46.190Z,100402.16
2023-03-11T09:55:27.042Z,100403.03
2023-03-11T09:57:55.225Z,100399.34
2023-03-11T10:00:24.516Z,100410.53
2023-03-11T10:02:52.550Z,100416.66
2023-03-11T10:05:23.598Z,100414.94
2023-03-11T10:07:59.445Z,100396.94
2023-03-11T10:10:29.105Z,100401.56
2023-03-11T10:13:02.037Z,100402.47
2023-03-11T10:15:39.478Z,100422.34
2023-03-11T10:18:41.800Z,100426.97
2023-03-11T10:21:13.975Z,100437.81
2023-03-11T10:23:54.911Z,100437.00
2023-03-11T10:26:24.831Z,100437.50
2023-03-11T10:28:55.930Z,100436.00
2023-03-11T10:31:27.266Z,100436.25
2023-03-11T10:33:58.640Z,100420.97
2023-03-11T10:36:31.441Z,100436.34
2023-03-11T10:39:01.125Z,100443.31
2023-03-11T10:41:32.337Z,100447.19
2023-03-11T10:44:04.448Z,100429.66
2023-03-11T10:46:32.632Z,100428.78
2023-03-11T10:49:00.356Z,100431.72
2023-03-11T10:51:29.282Z,100428.25
2023-03-11T10:53:58.360Z,100434.19
2023-03-11T10:56:30.616Z,100435.50
2023-03-11T10:58:59.032Z,100423.75
2023-03-11T11:01:28.898Z,100436.00
2023-03-11T11:03:59.402Z,100422.06
2023-03-11T11:06:28.814Z,100418.63
2023-03-11T11:09:07.888Z,100411.34
2023-03-11T11:11:38.862Z,100409.00
2023-03-11T11:14:07.440Z,100418.25
2023-03-11T11:16:36.199Z,100426.25
2023-03-11T11:19:06.368Z,100419.13
2023-03-11T11:21:35.414Z,100438.84
2023-03-11T11:24:25.061Z,100423.91
2023-03-11T11:27:07.540Z,100427.97
2023-03-11T11:29:35.983Z,100431.94
2023-03-11T11:32:22.916Z,100429.38
2023-03-11T11:35:00.222Z,100420.13
2023-03-11T11:37:31.988Z,100431.81
2023-03-11T11:40:11.224Z,100429.78
2023-03-11T11:42:42.493Z,100428.34
2023-03-11T11:45:15.565Z,100434.72
2023-03-11T11:47:46.224Z,100427.06
2023-03-11T11:50:17.954Z,100427.75
2023-03-11T11:52:47.474Z,100419.56
2023-03-11T11:55:21.061Z,100418.44
2023-03-11T11:57:51.276Z,100427.97
2023-03-11T12:00:21.640Z,100423.66
2023-03-11T12:03:11.373Z,100427.53
2023-03-11T12:05:47.112Z,100436.09
2023-03-11T12:08:18.921Z,100448.72
2023-03-11T12:10:51.340Z,100416.56
2023-03-11T12:13:47.937Z,100423.19
2023-03-11T12:16:24.844Z,100423.25
2023-03-11T12:18:57.026Z,100431.84
2023-03-11T12:21:35.815Z,100425.13
2023-03-11T12:24:13.680Z,100429.00
2023-03-11T12:26:43.800Z,100429.63
2023-03-11T12:29:20.190Z,100440.88
2023-03-11T12:31:48.365Z,100427.56
2023-03-11T12:34:17.569Z,100431.94
2023-03-11T12:36:46.948Z,100444.72
2023-03-11T12:39:23.620Z,100442.53
2023-03-11T12:42:18.626Z,100438.53
2023-03-11T12:44:48.667Z,100449.09
2023-03-11T12:47:25.856Z,100442.44
2023-03-11T12:49:55.299Z,100446.78
2023-03-11T12:52:34.355Z,100444.44
2023-03-11T12:55:38.727Z,100442.59
2023-03-11T12:58:28.613Z,100448.88
2023-03-11T13:01:12.488Z,100451.78
2023-03-11T13:03:49.739Z,100446.38
2023-03-11T13:06:27.885Z,100434.31
2023-03-11T13:08:57.004Z,100447.34
2023-03-11T13:11:35.132Z,100431.09
2023-03-11T13:14:23.204Z,100413.41
2023-03-11T13:16:52.207Z,100406.19
2023-03-11T13:19:49.676Z,100414.91
2023-03-11T13:22:50.852Z,100425.03
2023-03-11T13:25:30.975Z,100419.38
2023-03-11T13:28:08.008Z,100414.31
2023-03-11T13:30:40.060Z,100417.06
2023-03-11T13:33:36.704Z,100415.63
2023-03-11T13:36:11.510Z,100404.88
2023-03-11T13:39:03.219Z,100422.81
2023-03-11T13:41:33.287Z,100427.56
2023-03-11T13:44:06.243Z,100414.66
2023-03-11T13:46:38.368Z,100423.81
2023-03-11T13:49:11.222Z,100432.66
2023-03-11T13:51:42.281Z,100423.44
2023-03-11T13:54:27.216Z,100422.91
2023-03-11T13:56:58.434Z,100424.81
2023-03-11T13:59:27.814Z,100425.72
2023-03-11T14:01:58.235Z,100426.16
2023-03-11T14:04:29.369Z,100419.47
2023-03-11T14:06:57.196Z,100432.97
2023-03-11T14:09:26.944Z,100445.38
2023-03-11T14:11:57.030Z,100440.88
2023-03-11T14:14:35.529Z,100436.31
2023-03-11T14:17:04.080Z,100429.41
2023-03-11T14:19:33.200Z,100448.81
2023-03-11T14:22:00.858Z,100457.16
2023-03-11T14:24:31.065Z,100437.22
2023-03-11T14:27:01.121Z,100447.56
2023-03-11T14:29:32.542Z,100439.84
2023-03-11T14:32:00.513Z,100451.22
2023-03-11T14:34:31.089Z,100457.38
2023-03-11T14:37:04.157Z,100462.53
2023-03-11T14:39:33.396Z,100453.13
2023-03-11T14:42:05.933Z,100460.03
2023-03-11T14:44:35.322Z,100455.22
2023-03-11T14:47:10.213Z,100453.31
2023-03-11T14:49:38.745Z,100469.41
2023-03-11T14:52:15.106Z,100453.97
2023-03-11T14:54:43.294Z,100457.84
2023-03-11T14:57:20.283Z,100459.06
2023-03-11T14:59:49.872Z,100440.81
2023-03-11T15:02:37.029Z,100446.38
2023-03-11T15:05:07.864Z,100462.41
2023-03-11T15:07:38.250Z,100443.47
2023-03-11T15:10:09.510Z,100453.53
2023-03-11T15:12:41.124Z,100465.66
2023-03-11T15:15:25.953Z,100458.78
2023-03-11T15:17:54.940Z,100457.28
2023-03-11T15:20:28.295Z,100449.97
2023-03-11T15:23:01.088Z,100452.66
2023-03-11T15:25:31.199Z,100440.19
2023-03-11T15:27:58.947Z,100441.84
2023-03-11T15:30:28.253Z,100438.16
2023-03-11T15:32:56.725Z,100442.19
2023-03-11T15:35:25.660Z,100441.09
2023-03-11T15:38:14.693Z,100445.22
2023-03-11T15:40:52.024Z,100441.09
2023-03-11T15:43:23.890Z,100434.28
2023-03-11T15:45:53.609Z,100433.09
2023-03-11T15:48:22.319Z,100431.00
2023-03-11T15:50:53.718Z,100424.00
2023-03-11T15:53:24.365Z,100430.94
2023-03-11T15:55:52.931Z,100443.91
2023-03-11T15:58:21.582Z,100443.56
2023-03-11T16:00:50.901Z,100448.34
2023-03-11T16:03:19.269Z,100435.00
2023-03-11T16:05:47.234Z,100436.09
2023-03-11T16:08:15.096Z,100447.41
2023-03-11T16:10:44.152Z,100442.97
2023-03-11T16:13:13.368Z,100446.25
2023-03-11T16:15:42.198Z,100442.03
2023-03-11T16:18:10.545Z,100450.63
2023-03-11T16:20:41.606Z,100444.22
2023-03-11T16:23:13.019Z,100438.19
2023-03-11T16:25:41.533Z,100428.41
2023-03-11T16:28:12.672Z,100427.16
2023-03-11T16:30:40.360Z,100431.31
2023-03-11T16:33:08.176Z,100426.00
2023-03-11T16:35:36.141Z,100433.41
2023-03-11T16:38:03.904Z,100427.75
2023-03-11T16:40:32.659Z,100434.88
2023-03-11T16:43:02.480Z,100428.97
2023-03-11T16:45:31.830Z,100430.72
2023-03-11T16:47:59.562Z,100432.63
2023-03-11T16:50:27.508Z,100432.69
2023-03-11T16:52:56.088Z,100428.44
2023-03-11T16:55:24.307Z,100434.88
2023-03-11T16:57:52.094Z,100429.63
2023-03-11T17:00:20.066Z,100438.28
2023-03-11T17:02:49.170Z,100435.53
2023-03-11T17:05:16.948Z,100449.09
2023-03-11T17:07:44.696Z,100437.91
2023-03-11T17:10:13.332Z,100444.91
2023-03-11T17:12:41.071Z,100439.00
2023-03-11T17:15:09.488Z,100433.34
2023-03-11T17:17:37.293Z,100431.63
2023-03-11T17:20:08.024Z,100431.88
2023-03-11T17:22:35.860Z,100438.25
2023-03-11T17:25:03.944Z,100435.00
2023-03-11T17:27:32.556Z,100440.81
2023-03-11T17:30:00.875Z,100450.00
2023-03-11T17:32:28.733Z,100444.38
2023-03-11T17:34:56.564Z,100444.72
2023-03-11T17:37:26.185Z,100449.06
2023-03-11T17:39:54.405Z,100450.16
2023-03-11T17:42:22.117Z,100451.69
2023-03-11T17:44:52.084Z,100461.06
2023-03-11T17:47:20.512Z,100462.25
2023-03-11T17:49:48.551Z,100465.06
2023-03-11T17:52:16.304Z,100472.19
2023-03-11T17:54:45.382Z,100470.38
2023-03-11T17:57:13.031Z,100477.22
2023-03-11T17:59:40.833Z,100485.19
2023-03-11T18:02:08.849Z,100477.41
2023-03-11T18:04:38.822Z,100480.91
2023-03-11T18:07:06.511Z,100488.63
2023-03-11T18:09:34.173Z,100487.56
2023-03-11T18:12:03.998Z,100488.94
2023-03-11T18:14:31.718Z,100484.72
2023-03-11T18:16:59.679Z,100483.72
2023-03-11T18:19:27.384Z,100488.94
2023-03-11T18:21:55.165Z,100483.94
2023-03-11T18:24:22.884Z,100485.09
2023-03-11T18:26:50.563Z,100479.31
2023-03-11T18:29:19.640Z,100471.31
2023-03-11T18:31:47.378Z,100468.56
2023-03-11T18:34:15.137Z,100483.78
2023-03-11T18:36:43.388Z,100502.22
2023-03-11T18:39:13.743Z,100504.06
2023-03-11T18:41:42.748Z,100507.25
2023-03-11T18:44:10.912Z,100506.25
2023-03-11T18:46:41.878Z,100501.78
2023-03-11T18:49:13.326Z,100500.66
2023-03-11T18:51:41.226Z,100507.22
2023-03-11T18:54:09.192Z,100501.56
2023-03-11T18:56:37.315Z,100509.75
2023-03-11T18:59:05.056Z,100508.94
2023-03-11T19:01:32.933Z,100514.41
2023-03-11T19:04:02.072Z,100512.13
2023-03-11T19:06:30.659Z,100509.84
2023-03-11T19:08:58.754Z,100508.59
2023-03-11T19:11:26.847Z,100500.06
2023-03-11T19:13:54.612Z,100508.88
2023-03-11T19:16:24.167Z,100510.69
2023-03-11T19:18:53.834Z,100505.66
2023-03-11T19:21:23.449Z,100505.72
2023-03-11T19:23:52.783Z,100504.97
2023-03-11T19:26:23.902Z,100507.66
2023-03-11T19:28:55.739Z,100511.13
2023-03-11T19:31:23.482Z,100512.97
2023-03-11T19:33:51.268Z,100510.44
2023-03-11T19:36:19.111Z,100506.13
2023-03-11T19:38:48.700Z,100509.91
2023-03-11T19:41:19.312Z,100510.84
2023-03-11T19:43:47.534Z,100511.00
2023-03-11T19:46:16.852Z,100507.69
2023-03-11T19:48:44.617Z,100516.44
2023-03-11T19:51:12.895Z,100519.13
2023-03-11T19:53:41.592Z,100518.38
2023-03-11T19:56:11.053Z,100514.16
2023-03-11T19:58:38.816Z,100522.94
2023-03-11T20:01:06.518Z,100514.31
2023-03-11T20:03:34.377Z,100512.91
2023-03-11T20:06:06.399Z,100522.41
2023-03-11T20:08:36.637Z,100519.88
2023-03-11T20:11:05.583Z,100525.09
2023-03-11T20:13:35.445Z,100518.19
2023-03-11T20:16:08.083Z,100519.88
2023-03-11T20:18:35.827Z,100515.69
2023-03-11T20:21:06.319Z,100516.63
2023-03-11T20:23:34.313Z,100520.19
2023-03-11T20:26:06.220Z,100519.38
2023-03-11T20:28:35.280Z,100519.34
2023-03-11T20:31:09.340Z,100527.84
2023-03-11T20:33:37.536Z,100526.28
2023-03-11T20:36:06.645Z,100521.16
2023-03-11T20:38:34.371Z,100527.25
2023-03-11T20:41:05.798Z,100518.56
2023-03-11T20:43:35.163Z,100514.34
2023-03-11T20:46:03.043Z,100511.81
2023-03-11T20:48:31.074Z,100518.88
2023-03-11T20:51:01.077Z,100521.50
2023-03-11T20:53:30.285Z,100514.72
2023-03-11T20:55:58.282Z,100521.75
2023-03-11T20:58:26.154Z,100519.25
2023-03-11T21:00:55.137Z,100514.13
2023-03-11T21:03:23.039Z,100514.13
2023-03-11T21:05:50.844Z,100524.59
2023-03-11T21:08:18.883Z,100517.72
2023-03-11T21:10:46.661Z,100524.66
2023-03-11T21:13:14.341Z,100523.84
2023-03-11T21:15:42.156Z,100522.97
2023-03-11T21:18:11.246Z,100521.34
2023-03-11T21:20:38.943Z,100518.72
2023-03-11T21:23:08.816Z,100526.56
2023-03-11T21:25:39.145Z,100521.34
2023-03-11T21:28:06.889Z,100525.69
2023-03-11T21:30:34.620Z,100522.34
2023-03-11T21:33:02.375Z,100527.63
2023-03-11T21:35:31.562Z,100528.41
2023-03-11T21:37:59.369Z,100525.88
2023-03-11T21:40:27.070Z,100527.56
2023-03-11T21:42:54.881Z,100528.44
2023-03-11T21:45:22.634Z,100525.84
2023-03-11T21:47:50.415Z,100525.00
2023-03-11T21:50:18.301Z,100521.56
2023-03-11T21:52:47.466Z,100532.84
2023-03-11T21:55:15.183Z,100531.97
2023-03-11T21:57:42.906Z,100525.06
2023-03-11T22:00:12.114Z,100526.91
2023-03-11T22:02:39.823Z,100526.06
2023-03-11T22:05:08.220Z,100526.09
2023-03-11T22:07:36.182Z,100530.47
2023-03-11T22:10:06.042Z,100523.63
2023-03-11T22:12:33.870Z,100526.25
2023-03-11T22:15:01.605Z,100527.13
2023-03-11T22:17:29.409Z,100528.00
2023-03-11T22:19:57.256Z,100524.53
2023-03-11T22:22:25.184Z,100525.47
2023-03-11T22:24:52.918Z,100529.81
2023-03-11T22:27:22.009Z,100527.22
2023-03-11T22:29:49.761Z,100525.47
2023-03-11T22:32:17.919Z,100522.84
2023-03-11T22:34:45.607Z,100524.41
2023-03-11T22:37:13.328Z,100523.50
2023-03-11T22:39:41.060Z,100518.28
2023-03-11T22:42:09.095Z,100518.22
2023-03-11T22:44:38.185Z,100521.63
2023-03-11T22:47:06.124Z,100521.50
2023-03-11T22:49:33.779Z,100525.75
2023-03-11T22:52:01.497Z,100526.44
2023-03-11T22:54:29.312Z,100528.94
2023-03-11T22:56:57.041Z,100523.63
2023-03-11T22:59:27.033Z,100531.31
2023-03-11T23:01:56.161Z,100531.28
2023-03-11T23:04:23.939Z,100519.84
2023-03-11T23:06:54.367Z,100524.16
2023-03-11T23:09:22.882Z,100522.44
2023-03-11T23:11:50.959Z,100526.69
2023-03-11T23:14:21.947Z,100522.38
2023-03-11T23:16:51.453Z,100533.50
2023-03-11T23:19:20.780Z,100525.78
2023-03-11T23:21:48.475Z,100521.66
2023-03-11T23:24:16.221Z,100520.16
2023-03-11T23:26:45.009Z,100522.97
2023-03-11T23:29:14.717Z,100523.06
2023-03-11T23:31:42.416Z,100523.28
2023-03-11T23:34:10.090Z,100513.09
2023-03-11T23:36:39.119Z,100520.22
2023-03-11T23:39:06.814Z,100515.06
2023-03-11T23:41:35.828Z,100520.34
2023-03-11T23:44:03.453Z,100516.03
2023-03-11T23:46:31.175Z,100518.56
2023-03-11T23:49:00.869Z,100517.59
2023-03-11T23:51:28.630Z,100525.34
2023-03-11T23:53:57.683Z,100523.41
2023-03-11T23:56:25.392Z,100515.59
2023-03-11T23:58:53.088Z,100519.84
